createdAt,value
2019-02-22T00:00:07.790Z,1036.98
2019-02-22T00:01:07.778Z,1037.05
2019-02-22T00:02:07.771Z,1037.02
2019-02-22T00:03:07.758Z,1037.05
2019-02-22T00:04:07.747Z,1037.1
2019-02-22T00:05:07.735Z,1037.12
2019-02-22T00:06:07.726Z,1037.15
2019-02-22T00:07:07.793Z,1037.09
2019-02-22T00:08:07.709Z,1037.24
2019-02-22T00:09:07.694Z,1037.15
2019-02-22T00:10:07.683Z,1037.24
2019-02-22T00:11:07.673Z,1037.19
2019-02-22T00:12:07.661Z,1037.26
2019-02-22T00:13:07.652Z,1037.37
2019-02-22T00:14:07.641Z,1037.33
2019-02-22T00:15:07.631Z,1037.34
2019-02-22T00:16:07.623Z,1037.35
2019-02-22T00:17:07.609Z,1037.31
2019-02-22T00:18:07.598Z,1037.29
2019-02-22T00:19:07.586Z,1037.34
2019-02-22T00:20:07.825Z,1037.33
2019-02-22T00:21:07.566Z,1037.36
2019-02-22T00:22:07.555Z,1037.35
2019-02-22T00:23:07.542Z,1037.38
2019-02-22T00:24:07.532Z,1037.41
2019-02-22T00:25:07.522Z,1037.43
2019-02-22T00:26:07.510Z,1037.48
2019-02-22T00:27:07.512Z,1037.5
2019-02-22T00:28:07.489Z,1037.5
2019-02-22T00:29:07.566Z,1037.56
2019-02-22T00:30:07.470Z,1037.54
2019-02-22T00:31:07.456Z,1037.51
2019-02-22T00:32:07.445Z,1037.58
2019-02-22T00:33:07.435Z,1037.64
2019-02-22T00:34:07.493Z,1037.57
2019-02-22T00:35:07.462Z,1037.66
2019-02-22T00:36:07.454Z,1037.68
2019-02-22T00:37:07.429Z,1037.75
2019-02-22T00:38:07.380Z,1037.75
2019-02-22T00:39:07.370Z,1037.83
2019-02-22T00:40:07.359Z,1037.77
2019-02-22T00:41:07.348Z,1037.8
2019-02-22T00:42:07.337Z,1037.9
2019-02-22T00:43:07.327Z,1037.89
2019-02-22T00:44:07.316Z,1037.99
2019-02-22T00:45:07.304Z,1037.91
2019-02-22T00:46:07.295Z,1038.02
2019-02-22T00:47:07.284Z,1037.94
2019-02-22T00:48:07.272Z,1037.95
2019-02-22T00:49:07.262Z,1037.94
2019-02-22T00:50:07.251Z,1037.99
2019-02-22T00:51:07.239Z,1037.93
2019-02-22T00:52:07.250Z,1037.98
2019-02-22T00:53:07.217Z,1037.93
2019-02-22T00:54:07.237Z,1038.02
2019-02-22T00:55:07.205Z,1037.99
2019-02-22T00:56:07.185Z,1038
2019-02-22T00:57:07.174Z,1038.06
2019-02-22T00:58:07.164Z,1038.07
2019-02-22T00:59:07.150Z,1038.06
2019-02-22T01:00:07.141Z,1038.11
2019-02-22T01:01:07.129Z,1038.17
2019-02-22T01:02:07.119Z,1038.17
2019-02-22T01:03:07.108Z,1038.2
2019-02-22T01:04:07.096Z,1038.21
2019-02-22T01:05:07.087Z,1038.25
2019-02-22T01:06:07.077Z,1038.26
2019-02-22T01:07:07.066Z,1038.28
2019-02-22T01:08:07.055Z,1038.27
2019-02-22T01:09:07.042Z,1038.3
2019-02-22T01:10:07.030Z,1038.32
2019-02-22T01:11:07.019Z,1038.33
2019-02-22T01:12:07.008Z,1038.34
2019-02-22T01:13:06.997Z,1038.34
2019-02-22T01:14:06.985Z,1038.34
2019-02-22T01:15:06.975Z,1038.32
2019-02-22T01:16:06.964Z,1038.32
2019-02-22T01:17:06.953Z,1038.33
2019-02-22T01:18:06.942Z,1038.38
2019-02-22T01:19:06.932Z,1038.37
2019-02-22T01:20:06.925Z,1038.42
2019-02-22T01:21:06.908Z,1038.49
2019-02-22T01:22:06.897Z,1038.48
2019-02-22T01:23:06.886Z,1038.54
2019-02-22T01:24:06.875Z,1038.59
2019-02-22T01:25:06.867Z,1038.58
2019-02-22T01:26:06.853Z,1038.55
2019-02-22T01:27:06.843Z,1038.55
2019-02-22T01:28:06.831Z,1038.58
2019-02-22T01:29:06.822Z,1038.62
2019-02-22T01:30:06.808Z,1038.6
2019-02-22T01:31:06.879Z,1038.62
2019-02-22T01:32:06.790Z,1038.64
2019-02-22T01:33:06.775Z,1038.67
2019-02-22T01:34:06.769Z,1038.77
2019-02-22T01:35:06.753Z,1038.74
2019-02-22T01:36:06.741Z,1038.81
2019-02-22T01:37:06.731Z,1038.83
2019-02-22T01:38:06.718Z,1038.81
2019-02-22T01:39:06.711Z,1038.85
2019-02-22T01:40:06.699Z,1038.8
2019-02-22T01:41:06.691Z,1038.86
2019-02-22T01:42:06.676Z,1038.83
2019-02-22T01:43:06.664Z,1038.87
2019-02-22T01:44:06.690Z,1038.91
2019-02-22T01:45:06.642Z,1038.92
2019-02-22T01:46:06.637Z,1038.9
2019-02-22T01:47:06.621Z,1038.9
2019-02-22T01:48:06.609Z,1038.92
2019-02-22T01:49:06.599Z,1038.9
2019-02-22T01:50:06.587Z,1038.94
2019-02-22T01:51:06.577Z,1039.01
2019-02-22T01:52:06.565Z,1039
2019-02-22T01:53:06.554Z,1039.05
2019-02-22T01:54:06.542Z,1039.04
2019-02-22T01:55:06.532Z,1039.05
2019-02-22T01:56:06.521Z,1039.06
2019-02-22T01:57:06.511Z,1039.08
2019-02-22T01:58:06.499Z,1039.09
2019-02-22T01:59:06.487Z,1039.18
2019-02-22T02:00:06.477Z,1039.18
2019-02-22T02:01:06.464Z,1039.19
2019-02-22T02:02:06.453Z,1039.25
2019-02-22T02:03:06.442Z,1039.25
2019-02-22T02:04:06.433Z,1039.3
2019-02-22T02:05:06.420Z,1039.34
2019-02-22T02:06:06.412Z,1039.35
2019-02-22T02:07:06.398Z,1039.34
2019-02-22T02:08:06.388Z,1039.34
2019-02-22T02:09:06.378Z,1039.45
2019-02-22T02:10:06.365Z,1039.37
2019-02-22T02:11:06.353Z,1039.42
2019-02-22T02:12:06.342Z,1039.42
2019-02-22T02:13:06.337Z,1039.43
2019-02-22T02:14:06.321Z,1039.42
2019-02-22T02:15:06.308Z,1039.39
2019-02-22T02:16:06.303Z,1039.42
2019-02-22T02:17:06.287Z,1039.43
2019-02-22T02:18:06.275Z,1039.43
2019-02-22T02:19:06.264Z,1039.48
2019-02-22T02:20:06.262Z,1039.44
2019-02-22T02:21:06.251Z,1039.48
2019-02-22T02:22:06.232Z,1039.53
2019-02-22T02:23:06.223Z,1039.52
2019-02-22T02:24:06.207Z,1039.53
2019-02-22T02:25:06.197Z,1039.57
2019-02-22T02:26:06.186Z,1039.59
2019-02-22T02:27:06.176Z,1039.52
2019-02-22T02:28:06.162Z,1039.57
2019-02-22T02:29:06.152Z,1039.6
2019-02-22T02:30:06.142Z,1039.75
2019-02-22T02:31:06.129Z,1039.76
2019-02-22T02:32:06.122Z,1039.66
2019-02-22T02:33:06.111Z,1039.79
2019-02-22T02:34:06.095Z,1039.69
2019-02-22T02:35:06.123Z,1039.71
2019-02-22T02:36:06.074Z,1039.72
2019-02-22T02:37:06.072Z,1039.72
2019-02-22T02:38:06.050Z,1039.69
2019-02-22T02:39:06.039Z,1039.77
2019-02-22T02:40:06.028Z,1039.82
2019-02-22T02:41:10.116Z,1039.82
2019-02-22T02:42:06.006Z,1039.79
2019-02-22T02:43:05.996Z,1039.81
2019-02-22T02:44:05.992Z,1039.81
2019-02-22T02:45:06.034Z,1039.87
2019-02-22T02:46:05.960Z,1039.88
2019-02-22T02:47:05.949Z,1039.87
2019-02-22T02:48:05.938Z,1039.95
2019-02-22T02:49:05.926Z,1039.93
2019-02-22T02:50:05.916Z,1039.92
2019-02-22T02:51:05.909Z,1040.05
2019-02-22T02:52:05.894Z,1040.02
2019-02-22T02:53:05.881Z,1040.04
2019-02-22T02:54:05.869Z,1040.03
2019-02-22T02:55:05.866Z,1040.09
2019-02-22T02:56:06.097Z,1040.08
2019-02-22T02:57:05.837Z,1040.14
2019-02-22T02:58:05.824Z,1040.08
2019-02-22T02:59:05.814Z,1040.09
2019-02-22T03:00:05.803Z,1040.1
2019-02-22T03:01:05.791Z,1040.19
2019-02-22T03:02:05.780Z,1040.16
2019-02-22T03:03:05.773Z,1040.16
2019-02-22T03:04:05.757Z,1040.15
2019-02-22T03:05:05.753Z,1040.15
2019-02-22T03:06:05.737Z,1040.13
2019-02-22T03:07:05.723Z,1040.15
2019-02-22T03:08:05.715Z,1040.16
2019-02-22T03:09:05.702Z,1040.08
2019-02-22T03:10:05.690Z,1040.11
2019-02-22T03:11:05.676Z,1040.17
2019-02-22T03:12:05.669Z,1040.12
2019-02-22T03:13:05.656Z,1040.08
2019-02-22T03:14:05.645Z,1040.1
2019-02-22T03:15:05.634Z,1040.18
2019-02-22T03:16:05.624Z,1040.1
2019-02-22T03:17:05.611Z,1040.11
2019-02-22T03:18:05.598Z,1040.13
2019-02-22T03:19:05.588Z,1040.22
2019-02-22T03:20:05.593Z,1040.31
2019-02-22T03:21:05.572Z,1040.27
2019-02-22T03:22:05.556Z,1040.25
2019-02-22T03:23:05.542Z,1040.27
2019-02-22T03:24:05.534Z,1040.34
2019-02-22T03:25:05.520Z,1040.38
2019-02-22T03:26:05.514Z,1040.38
2019-02-22T03:27:05.498Z,1040.43
2019-02-22T03:28:05.487Z,1040.39
2019-02-22T03:29:05.475Z,1040.39
2019-02-22T03:30:05.466Z,1040.3
2019-02-22T03:31:05.454Z,1040.42
2019-02-22T03:32:05.443Z,1040.33
2019-02-22T03:33:05.432Z,1040.43
2019-02-22T03:34:05.419Z,1040.48
2019-02-22T03:35:05.410Z,1040.6
2019-02-22T03:36:05.401Z,1040.5
2019-02-22T03:37:05.394Z,1040.52
2019-02-22T03:38:06.003Z,1040.57
2019-02-22T03:39:05.363Z,1040.58
2019-02-22T03:40:05.350Z,1040.67
2019-02-22T03:41:05.343Z,1040.68
2019-02-22T03:42:05.328Z,1040.68
2019-02-22T03:43:05.317Z,1040.78
2019-02-22T03:44:05.304Z,1040.86
2019-02-22T03:45:05.293Z,1040.92
2019-02-22T03:46:05.283Z,1040.92
2019-02-22T03:47:05.271Z,1040.95
2019-02-22T03:48:05.260Z,1040.91
2019-02-22T03:49:05.253Z,1040.96
2019-02-22T03:50:05.237Z,1040.93
2019-02-22T03:51:05.225Z,1041.01
2019-02-22T03:52:05.213Z,1040.99
2019-02-22T03:53:05.220Z,1041.03
2019-02-22T03:54:05.192Z,1041.15
2019-02-22T03:55:05.177Z,1041.15
2019-02-22T03:56:05.168Z,1041.23
2019-02-22T03:57:05.157Z,1041.19
2019-02-22T03:58:05.150Z,1041.35
2019-02-22T03:59:05.133Z,1041.34
2019-02-22T04:00:05.122Z,1041.38
2019-02-22T04:01:05.112Z,1041.45
2019-02-22T04:02:05.099Z,1041.44
2019-02-22T04:03:05.087Z,1041.49
2019-02-22T04:04:05.077Z,1041.54
2019-02-22T04:05:05.064Z,1041.46
2019-02-22T04:06:05.052Z,1041.44
2019-02-22T04:07:05.042Z,1041.56
2019-02-22T04:08:07.091Z,1041.49
2019-02-22T04:09:05.020Z,1041.58
2019-02-22T04:10:05.006Z,1041.64
2019-02-22T04:11:04.995Z,1041.51
2019-02-22T04:12:04.987Z,1041.66
2019-02-22T04:13:04.974Z,1041.64
2019-02-22T04:14:04.989Z,1041.68
2019-02-22T04:15:04.950Z,1041.73
2019-02-22T04:16:04.935Z,1041.68
2019-02-22T04:17:04.932Z,1041.77
2019-02-22T04:18:04.912Z,1041.81
2019-02-22T04:19:04.902Z,1041.83
2019-02-22T04:20:04.889Z,1041.85
2019-02-22T04:21:04.878Z,1041.96
2019-02-22T04:22:04.866Z,1041.92
2019-02-22T04:23:04.854Z,1041.99
2019-02-22T04:24:04.843Z,1042.02
2019-02-22T04:25:04.829Z,1042.01
2019-02-22T04:26:04.818Z,1042.05
2019-02-22T04:27:04.807Z,1042.21
2019-02-22T04:28:04.794Z,1042.18
2019-02-22T04:29:04.783Z,1042.29
2019-02-22T04:30:04.773Z,1042.27
2019-02-22T04:31:04.758Z,1042.39
2019-02-22T04:32:04.747Z,1042.4
2019-02-22T04:33:04.735Z,1042.46
2019-02-22T04:34:04.730Z,1042.46
2019-02-22T04:35:04.710Z,1042.54
2019-02-22T04:36:04.699Z,1042.54
2019-02-22T04:37:04.687Z,1042.65
2019-02-22T04:38:04.679Z,1042.63
2019-02-22T04:39:04.662Z,1042.85
2019-02-22T04:40:04.650Z,1042.74
2019-02-22T04:41:04.639Z,1042.86
2019-02-22T04:42:04.627Z,1042.99
2019-02-22T04:43:04.614Z,1043.07
2019-02-22T04:44:04.603Z,1043.19
2019-02-22T04:45:04.590Z,1043.46
2019-02-22T04:46:04.578Z,1043.29
2019-02-22T04:47:04.568Z,1043.18
2019-02-22T04:48:04.554Z,1043.18
2019-02-22T04:49:04.542Z,1043.23
2019-02-22T04:50:04.531Z,1043.44
2019-02-22T04:51:04.517Z,1043.3
2019-02-22T04:52:04.509Z,1043.42
2019-02-22T04:53:04.493Z,1043.4
2019-02-22T04:54:04.482Z,1043.53
2019-02-22T04:55:04.469Z,1043.5
2019-02-22T04:56:04.458Z,1043.49
2019-02-22T04:57:04.444Z,1043.53
2019-02-22T04:58:04.431Z,1043.65
2019-02-22T04:59:04.420Z,1043.65
2019-02-22T05:00:04.407Z,1043.6
2019-02-22T05:01:04.394Z,1043.79
2019-02-22T05:02:04.382Z,1043.72
2019-02-22T05:03:04.375Z,1043.71
2019-02-22T05:04:04.357Z,1043.83
2019-02-22T05:05:04.343Z,1043.9
2019-02-22T05:06:04.332Z,1043.93
2019-02-22T05:07:04.319Z,1043.93
2019-02-22T05:08:04.309Z,1043.99
2019-02-22T05:09:04.298Z,1044.02
2019-02-22T05:10:04.281Z,1044
2019-02-22T05:11:04.268Z,1044.01
2019-02-22T05:12:10.647Z,1044.09
2019-02-22T05:13:04.242Z,1044.07
2019-02-22T05:14:04.230Z,1044.22
2019-02-22T05:15:12.225Z,1044.19
2019-02-22T05:16:04.206Z,1044.27
2019-02-22T05:17:04.192Z,1044.38
2019-02-22T05:18:04.182Z,1044.34
2019-02-22T05:19:04.166Z,1044.36
2019-02-22T05:20:04.155Z,1044.4
2019-02-22T05:21:04.144Z,1044.44
2019-02-22T05:22:04.132Z,1044.54
2019-02-22T05:23:07.212Z,1044.63
2019-02-22T05:24:04.103Z,1044.64
2019-02-22T05:25:04.090Z,1044.76
2019-02-22T05:26:04.076Z,1044.84
2019-02-22T05:27:04.064Z,1044.93
2019-02-22T05:28:04.073Z,1044.97
2019-02-22T05:29:04.038Z,1045.03
2019-02-22T05:30:04.039Z,1045.1
2019-02-22T05:31:04.016Z,1045.14
2019-02-22T05:32:03.999Z,1045.21
2019-02-22T05:33:03.986Z,1045.23
2019-02-22T05:34:03.971Z,1045.31
2019-02-22T05:35:03.965Z,1045.32
2019-02-22T05:36:03.947Z,1045.39
2019-02-22T05:37:03.933Z,1045.44
2019-02-22T05:38:03.920Z,1045.53
2019-02-22T05:39:03.909Z,1045.6
2019-02-22T05:40:03.895Z,1045.66
2019-02-22T05:41:03.881Z,1045.74
2019-02-22T05:42:03.867Z,1045.88
2019-02-22T05:43:03.855Z,1045.9
2019-02-22T05:44:03.841Z,1046.01
2019-02-22T05:45:03.827Z,1045.87
2019-02-22T05:46:03.817Z,1045.95
2019-02-22T05:47:03.806Z,1045.99
2019-02-22T05:48:03.788Z,1046.05
2019-02-22T05:49:03.774Z,1046.08
2019-02-22T05:50:03.763Z,1046.06
2019-02-22T05:51:03.761Z,1046.07
2019-02-22T05:52:03.734Z,1046.12
2019-02-22T05:53:03.722Z,1046.08
2019-02-22T05:54:03.708Z,1046.13
2019-02-22T05:55:03.693Z,1046.13
2019-02-22T05:56:03.680Z,1046.17
2019-02-22T05:57:03.666Z,1046.17
2019-02-22T05:58:03.661Z,1046.25
2019-02-22T05:59:03.667Z,1046.26
2019-02-22T06:00:03.626Z,1046.29
2019-02-22T06:01:06.507Z,1046.34
2019-02-22T06:02:03.606Z,1046.39
2019-02-22T06:03:03.837Z,1046.39
2019-02-22T06:04:03.574Z,1046.42
2019-02-22T06:05:03.557Z,1046.54
2019-02-22T06:06:03.543Z,1046.62
2019-02-22T06:07:03.530Z,1046.62
2019-02-22T06:08:03.517Z,1046.62
2019-02-22T06:09:03.504Z,1046.82
2019-02-22T06:10:03.500Z,1046.77
2019-02-22T06:11:03.476Z,1046.76
2019-02-22T06:12:03.463Z,1046.81
2019-02-22T06:13:03.447Z,1046.93
2019-02-22T06:14:03.432Z,1046.92
2019-02-22T06:15:03.419Z,1047.04
2019-02-22T06:16:03.406Z,1047.12
2019-02-22T06:17:13.750Z,1047.15
2019-02-22T06:18:03.380Z,1047.2
2019-02-22T06:19:03.364Z,1047.39
2019-02-22T06:20:03.349Z,1047.32
2019-02-22T06:21:03.337Z,1047.33
2019-02-22T06:22:03.324Z,1047.61
2019-02-22T06:23:03.309Z,1047.5
2019-02-22T06:24:03.501Z,1047.72
2019-02-22T06:25:03.292Z,1047.73
2019-02-22T06:26:03.377Z,1047.93
2019-02-22T06:27:03.253Z,1047.88
2019-02-22T06:28:03.243Z,1048.03
2019-02-22T06:29:03.226Z,1047.99
2019-02-22T06:30:03.212Z,1048.08
2019-02-22T06:31:03.198Z,1048.15
2019-02-22T06:32:03.183Z,1048.24
2019-02-22T06:33:03.223Z,1048.25
2019-02-22T06:34:03.156Z,1048.54
2019-02-22T06:35:03.141Z,1048.35
2019-02-22T06:36:03.128Z,1048.35
2019-02-22T06:37:03.113Z,1048.47
2019-02-22T06:38:03.100Z,1048.59
2019-02-22T06:39:03.087Z,1048.68
2019-02-22T06:40:03.069Z,1048.8
2019-02-22T06:41:03.059Z,1048.66
2019-02-22T06:42:03.042Z,1048.63
2019-02-22T06:43:03.026Z,1048.88
2019-02-22T06:44:03.011Z,1048.84
2019-02-22T06:45:02.999Z,1048.73
2019-02-22T06:46:02.985Z,1048.79
2019-02-22T06:47:02.969Z,1049.03
2019-02-22T06:48:02.955Z,1048.84
2019-02-22T06:49:02.941Z,1048.95
2019-02-22T06:50:02.931Z,1048.81
2019-02-22T06:51:02.912Z,1048.9
2019-02-22T06:52:02.897Z,1048.86
2019-02-22T06:53:02.883Z,1048.96
2019-02-22T06:54:02.868Z,1049.18
2019-02-22T06:55:02.854Z,1049.01
2019-02-22T06:56:02.845Z,1049.04
2019-02-22T06:57:02.830Z,1049.09
2019-02-22T06:58:02.827Z,1049.18
2019-02-22T06:59:02.796Z,1049.14
2019-02-22T07:00:02.781Z,1049.15
2019-02-22T07:01:02.765Z,1049.12
2019-02-22T07:02:02.752Z,1049.16
2019-02-22T07:03:02.737Z,1049.15
2019-02-22T07:04:02.726Z,1049.22
2019-02-22T07:05:02.709Z,1049.25
2019-02-22T07:06:05.394Z,1049.28
2019-02-22T07:07:02.680Z,1049.41
2019-02-22T07:08:02.664Z,1049.46
2019-02-22T07:09:02.649Z,1049.49
2019-02-22T07:10:02.641Z,1049.46
2019-02-22T07:11:02.623Z,1049.51
2019-02-22T07:12:02.606Z,1049.48
2019-02-22T07:13:02.620Z,1049.51
2019-02-22T07:14:02.575Z,1049.48
2019-02-22T07:15:02.563Z,1049.5
2019-02-22T07:16:02.550Z,1049.46
2019-02-22T07:17:02.532Z,1049.49
2019-02-22T07:18:02.518Z,1049.67
2019-02-22T07:19:02.503Z,1049.6
2019-02-22T07:20:02.489Z,1049.64
2019-02-22T07:21:02.475Z,1049.78
2019-02-22T07:22:02.460Z,1049.66
2019-02-22T07:23:02.447Z,1049.71
2019-02-22T07:24:02.770Z,1049.63
2019-02-22T07:25:02.415Z,1049.87
2019-02-22T07:26:02.404Z,1049.75
2019-02-22T07:27:02.386Z,1049.83
2019-02-22T07:28:02.377Z,1049.83
2019-02-22T07:29:02.358Z,1049.91
2019-02-22T07:30:02.342Z,1049.97
2019-02-22T07:31:02.329Z,1050.07
2019-02-22T07:32:05.617Z,1050.18
2019-02-22T07:33:02.299Z,1050.08
2019-02-22T07:34:02.286Z,1050.13
2019-02-22T07:35:02.269Z,1050.16
2019-02-22T07:36:02.256Z,1050.19
2019-02-22T07:37:02.246Z,1050.34
2019-02-22T07:38:02.226Z,1050.26
2019-02-22T07:39:02.211Z,1050.34
2019-02-22T07:40:02.199Z,1050.4
2019-02-22T07:41:02.182Z,1050.34
2019-02-22T07:42:02.168Z,1050.44
2019-02-22T07:43:07.873Z,1050.31
2019-02-22T07:44:02.140Z,1050.36
2019-02-22T07:45:02.125Z,1050.33
2019-02-22T07:46:02.109Z,1050.41
2019-02-22T07:47:02.096Z,1050.39
2019-02-22T07:48:02.080Z,1050.33
2019-02-22T07:49:02.065Z,1050.37
2019-02-22T07:50:02.050Z,1050.36
2019-02-22T07:51:02.036Z,1050.32
2019-02-22T07:52:02.021Z,1050.29
2019-02-22T07:53:02.010Z,1050.29
2019-02-22T07:54:01.992Z,1050.31
2019-02-22T07:55:01.980Z,1050.34
2019-02-22T07:56:01.962Z,1050.4
2019-02-22T07:57:01.950Z,1050.61
2019-02-22T07:58:01.935Z,1050.56
2019-02-22T07:59:03.078Z,1050.51
2019-02-22T08:00:01.905Z,1050.62
2019-02-22T08:01:01.910Z,1050.62
2019-02-22T08:02:01.875Z,1050.69
2019-02-22T08:03:01.861Z,1050.81
2019-02-22T08:04:01.855Z,1050.73
2019-02-22T08:05:01.839Z,1050.83
2019-02-22T08:06:01.825Z,1050.83
2019-02-22T08:07:01.803Z,1050.87
2019-02-22T08:08:01.788Z,1050.96
2019-02-22T08:09:01.775Z,1050.98
2019-02-22T08:10:01.759Z,1051.1
2019-02-22T08:11:01.759Z,1051.11
2019-02-22T08:12:01.733Z,1051.08
2019-02-22T08:13:01.718Z,1051.33
2019-02-22T08:14:01.700Z,1051.22
2019-02-22T08:15:01.687Z,1051.32
2019-02-22T08:16:01.671Z,1051.47
2019-02-22T08:17:01.659Z,1051.37
2019-02-22T08:18:01.648Z,1051.38
2019-02-22T08:19:02.074Z,1051.4
2019-02-22T08:20:01.613Z,1051.47
2019-02-22T08:21:01.598Z,1051.46
2019-02-22T08:22:03.512Z,1051.5
2019-02-22T08:23:01.568Z,1051.48
2019-02-22T08:24:01.554Z,1051.49
2019-02-22T08:25:01.539Z,1051.57
2019-02-22T08:26:01.524Z,1051.58
2019-02-22T08:27:01.511Z,1051.64
2019-02-22T08:28:01.495Z,1051.62
2019-02-22T08:29:01.483Z,1051.64
2019-02-22T08:30:01.465Z,1051.68
2019-02-22T08:31:01.494Z,1051.97
2019-02-22T08:32:01.435Z,1051.86
2019-02-22T08:33:01.442Z,1051.87
2019-02-22T08:34:01.406Z,1051.78
2019-02-22T08:35:01.392Z,1051.78
2019-02-22T08:36:01.450Z,1051.77
2019-02-22T08:37:01.362Z,1051.73
2019-02-22T08:38:01.349Z,1051.73
2019-02-22T08:39:01.582Z,1051.69
2019-02-22T08:40:02.398Z,1051.79
2019-02-22T08:41:01.303Z,1051.78
2019-02-22T08:42:01.287Z,1051.81
2019-02-22T08:43:01.272Z,1051.82
2019-02-22T08:44:01.258Z,1051.89
2019-02-22T08:45:01.247Z,1051.87
2019-02-22T08:46:01.228Z,1051.86
2019-02-22T08:47:01.213Z,1051.93
2019-02-22T08:48:01.198Z,1051.96
2019-02-22T08:49:01.184Z,1052.06
2019-02-22T08:50:01.171Z,1052.06
2019-02-22T08:51:01.155Z,1052.11
2019-02-22T08:52:01.139Z,1052.25
2019-02-22T08:53:01.129Z,1052.27
2019-02-22T08:54:01.109Z,1052.37
2019-02-22T08:55:01.095Z,1052.31
2019-02-22T08:56:01.080Z,1052.39
2019-02-22T08:57:01.066Z,1052.39
2019-02-22T08:58:01.051Z,1052.39
2019-02-22T08:59:01.037Z,1052.48
2019-02-22T09:00:01.021Z,1052.65
2019-02-22T09:01:01.007Z,1052.48
2019-02-22T09:02:00.991Z,1052.56
2019-02-22T09:03:00.977Z,1052.55
2019-02-22T09:04:00.962Z,1052.37
2019-02-22T09:05:00.945Z,1052.38
2019-02-22T09:06:00.936Z,1052.34
2019-02-22T09:07:00.918Z,1052.22
2019-02-22T09:08:00.904Z,1052.28
2019-02-22T09:09:00.889Z,1052.25
2019-02-22T09:10:00.874Z,1052.21
2019-02-22T09:11:01.001Z,1052.24
2019-02-22T09:12:00.845Z,1052.24
2019-02-22T09:13:00.829Z,1052.18
2019-02-22T09:14:00.816Z,1052.27
2019-02-22T09:15:00.808Z,1052.18
2019-02-22T09:16:00.786Z,1052.17
2019-02-22T09:17:00.772Z,1052.12
2019-02-22T09:18:00.767Z,1052.24
2019-02-22T09:19:00.743Z,1052.18
2019-02-22T09:20:00.728Z,1052.22
2019-02-22T09:21:00.715Z,1052.18
2019-02-22T09:22:00.700Z,1052.09
2019-02-22T09:23:00.685Z,1052.1
2019-02-22T09:24:00.670Z,1052.09
2019-02-22T09:25:00.657Z,1052.13
2019-02-22T09:26:00.643Z,1052.01
2019-02-22T09:27:00.628Z,1051.93
2019-02-22T09:28:00.613Z,1051.97
2019-02-22T09:29:00.600Z,1051.93
2019-02-22T09:30:00.586Z,1051.95
2019-02-22T09:31:00.571Z,1051.88
2019-02-22T09:32:00.557Z,1051.99
2019-02-22T09:33:00.543Z,1051.82
2019-02-22T09:34:00.531Z,1051.85
2019-02-22T09:35:00.541Z,1051.85
2019-02-22T09:36:00.502Z,1051.8
2019-02-22T09:37:00.489Z,1051.76
2019-02-22T09:38:00.474Z,1051.9
2019-02-22T09:39:00.463Z,1051.98
2019-02-22T09:40:00.448Z,1052.02
2019-02-22T09:41:00.433Z,1052.28
2019-02-22T09:42:00.419Z,1052.48
2019-02-22T09:43:00.406Z,1052.67
2019-02-22T09:44:00.397Z,1052.71
2019-02-22T09:45:00.378Z,1052.78
2019-02-22T09:46:00.364Z,1052.78
2019-02-22T09:47:00.351Z,1052.85
2019-02-22T09:48:00.337Z,1052.88
2019-02-22T09:49:00.322Z,1052.93
2019-02-22T09:50:00.372Z,1052.97
2019-02-22T09:51:00.295Z,1053.08
2019-02-22T09:52:00.281Z,1053.12
2019-02-22T09:53:00.264Z,1053.12
2019-02-22T09:54:00.252Z,1053.14
2019-02-22T09:55:00.392Z,1053.12
2019-02-22T09:56:00.297Z,1053.16
2019-02-22T09:57:01.957Z,1053.23
2019-02-22T09:58:00.195Z,1053.31
2019-02-22T09:59:00.251Z,1053.4
2019-02-22T10:00:00.312Z,1053.62
2019-02-22T10:01:00.150Z,1053.37
2019-02-22T10:02:00.142Z,1053.48
2019-02-22T10:03:00.124Z,1053.56
2019-02-22T10:04:00.109Z,1053.47
2019-02-22T10:05:00.384Z,1053.52
2019-02-22T10:06:00.079Z,1053.49
2019-02-22T10:07:00.066Z,1053.47
2019-02-22T10:08:00.049Z,1053.51
2019-02-22T10:09:00.034Z,1053.51
2019-02-22T10:10:00.021Z,1053.7
2019-02-22T10:11:00.005Z,1053.59
2019-02-22T10:11:59.990Z,1053.59
2019-02-22T10:12:59.976Z,1053.59
2019-02-22T10:14:06.472Z,1053.67
2019-02-22T10:14:59.949Z,1053.61
2019-02-22T10:15:59.932Z,1053.72
2019-02-22T10:16:59.918Z,1053.66
2019-02-22T10:17:59.905Z,1053.83
2019-02-22T10:18:59.887Z,1053.65
2019-02-22T10:20:01.582Z,1053.69
2019-02-22T10:20:59.859Z,1053.75
2019-02-22T10:21:59.843Z,1053.69
2019-02-22T10:22:59.829Z,1053.67
2019-02-22T10:23:59.814Z,1053.59
2019-02-22T10:24:59.800Z,1053.59
2019-02-22T10:25:59.785Z,1053.6
2019-02-22T10:26:59.769Z,1053.61
2019-02-22T10:27:59.755Z,1053.71
2019-02-22T10:28:59.741Z,1053.62
2019-02-22T10:29:59.725Z,1053.66
2019-02-22T10:30:59.713Z,1053.78
2019-02-22T10:31:59.696Z,1053.71
2019-02-22T10:32:59.683Z,1053.78
2019-02-22T10:33:59.666Z,1053.74
2019-02-22T10:34:59.652Z,1053.81
2019-02-22T10:35:59.637Z,1053.76
2019-02-22T10:36:59.622Z,1053.78
2019-02-22T10:37:59.607Z,1053.83
2019-02-22T10:38:59.593Z,1053.88
2019-02-22T10:39:59.581Z,1053.77
2019-02-22T10:40:59.563Z,1053.83
2019-02-22T10:41:59.550Z,1053.8
2019-02-22T10:42:59.534Z,1053.82
2019-02-22T10:43:59.519Z,1053.82
2019-02-22T10:44:59.506Z,1053.79
2019-02-22T10:45:59.490Z,1053.78
2019-02-22T10:46:59.476Z,1053.71
2019-02-22T10:47:59.461Z,1053.71
2019-02-22T10:48:59.446Z,1053.68
2019-02-22T10:49:59.431Z,1053.72
2019-02-22T10:50:59.655Z,1053.68
2019-02-22T10:51:59.402Z,1053.77
2019-02-22T10:53:02.331Z,1053.85
2019-02-22T10:53:59.373Z,1053.7
2019-02-22T10:54:59.358Z,1053.73
2019-02-22T10:55:59.343Z,1053.75
2019-02-22T10:56:59.329Z,1053.73
2019-02-22T10:57:59.314Z,1053.84
2019-02-22T10:58:59.299Z,1053.92
2019-02-22T10:59:59.284Z,1053.85
2019-02-22T11:00:59.270Z,1053.96
2019-02-22T11:01:59.255Z,1053.86
2019-02-22T11:02:59.239Z,1053.89
2019-02-22T11:03:59.227Z,1053.9
2019-02-22T11:04:59.212Z,1054.02
2019-02-22T11:05:59.196Z,1053.96
2019-02-22T11:06:59.182Z,1053.98
2019-02-22T11:07:59.169Z,1054.14
2019-02-22T11:08:59.153Z,1053.96
2019-02-22T11:09:59.141Z,1054.01
2019-02-22T11:10:59.125Z,1053.96
2019-02-22T11:11:59.111Z,1054.03
2019-02-22T11:12:59.096Z,1054.01
2019-02-22T11:13:59.081Z,1053.99
2019-02-22T11:14:59.067Z,1053.96
2019-02-22T11:15:59.054Z,1054
2019-02-22T11:16:59.038Z,1053.97
2019-02-22T11:17:59.022Z,1054.04
2019-02-22T11:18:59.008Z,1054.04
2019-02-22T11:19:58.993Z,1053.96
2019-02-22T11:20:58.978Z,1054
2019-02-22T11:21:58.964Z,1054.01
2019-02-22T11:22:58.951Z,1054.05
2019-02-22T11:23:58.939Z,1054.09
2019-02-22T11:24:58.923Z,1054.04
2019-02-22T11:25:58.907Z,1054.07
2019-02-22T11:26:58.892Z,1054.06
2019-02-22T11:27:58.875Z,1054.1
2019-02-22T11:28:58.862Z,1054.15
2019-02-22T11:29:58.847Z,1054.09
2019-02-22T11:30:59.133Z,1054.15
2019-02-22T11:31:58.819Z,1054.09
2019-02-22T11:32:58.804Z,1054.12
2019-02-22T11:33:58.789Z,1054.15
2019-02-22T11:34:58.774Z,1054.11
2019-02-22T11:35:58.760Z,1054.12
2019-02-22T11:36:58.745Z,1054.13
2019-02-22T11:37:58.733Z,1054.16
2019-02-22T11:38:58.716Z,1054.05
2019-02-22T11:39:58.704Z,1054.05
2019-02-22T11:40:58.690Z,1054.12
2019-02-22T11:41:58.672Z,1054.1
2019-02-22T11:42:58.657Z,1054.09
2019-02-22T11:43:58.643Z,1054.05
2019-02-22T11:44:58.629Z,1054.11
2019-02-22T11:45:58.614Z,1054.08
2019-02-22T11:46:58.599Z,1054.14
2019-02-22T11:48:08.624Z,1054.18
2019-02-22T11:48:58.571Z,1054.15
2019-02-22T11:49:58.556Z,1054.25
2019-02-22T11:50:58.542Z,1054.14
2019-02-22T11:51:58.528Z,1054.09
2019-02-22T11:52:58.513Z,1054.09
2019-02-22T11:53:58.500Z,1054.14
2019-02-22T11:54:58.487Z,1054.19
2019-02-22T11:55:58.470Z,1054.24
2019-02-22T11:56:58.455Z,1054.27
2019-02-22T11:57:58.441Z,1054.28
2019-02-22T11:58:58.426Z,1054.27
2019-02-22T11:59:58.412Z,1054.25
2019-02-22T12:00:58.397Z,1054.3
2019-02-22T12:01:58.383Z,1054.47
2019-02-22T12:02:58.371Z,1054.39
2019-02-22T12:03:58.354Z,1054.41
2019-02-22T12:04:58.340Z,1054.35
2019-02-22T12:05:58.326Z,1054.31
2019-02-22T12:06:58.312Z,1054.36